AKST,Max TemperatureF,Mean TemperatureF,Min TemperatureF,Max Dew PointF,MeanDew PointF,Min DewpointF,Max Humidity, Mean Humidity, Min Humidity, Max Sea Level PressureIn, Mean Sea Level PressureIn, Min Sea Level PressureIn, Max VisibilityMiles, Mean VisibilityMiles, Min VisibilityMiles, Max Wind SpeedMPH, Mean Wind SpeedMPH, Max Gust SpeedMPH,PrecipitationIn, CloudCover, Events, WindDirDegrees
2011-11-1,43,41,39,40,38,35,93,88,81,29.90,29.57,29.37,10,8,2,23,17,40,1.17,8,Rain,102
2011-11-2,39,32,25,36,23,6,100,72,43,30.17,29.78,29.54,10,7,1,25,13,40,0.07,6,Snow,300
2011-11-3,28,24,21,14,9,7,68,53,43,30.30,30.19,29.97,10,9,4,21,14,31,0.00,1,,296
2011-11-4,28,24,21,25,21,14,93,89,68,29.94,29.62,29.48,10,3,0,16,11,,0.10,8,Fog-Snow,293
2011-11-5,34,30,26,28,26,24,96,88,73,29.78,29.64,29.50,10,8,2,16,11,22,0.00,8,Snow,298
2011-11-6,39,34,28,36,33,27,100,92,87,29.78,29.61,29.47,10,8,2,18,9,39,0.09,8,Rain-Snow,96
2011-11-7,39,38,37,37,36,34,93,91,86,29.80,29.63,29.55,10,10,10,18,13,32,0.04,7,Rain,104
2011-11-8,37,35,33,33,31,29,96,86,76,30.09,30.02,29.84,10,10,5,12,8,22,0.00,7,Snow,299
2011-11-9,34,30,26,32,29,25,100,93,82,30.07,29.87,29.74,10,8,1,16,9,20,0.03,4,Snow,295
2011-11-10,37,32,27,35,31,26,100,94,89,29.76,29.46,29.28,10,6,1,16,10,28,0.34,8,Rain-Snow,310
2011-11-11,34,29,24,32,25,21,100,85,66,29.71,29.50,29.24,10,7,0,18,10,25,0.14,5,Fog-Snow,307
2011-11-12,34,28,23,32,26,21,100,92,85,29.22,28.86,28.72,10,4,0,17,8,25,0.44,7,Fog-Rain-Snow,298
2011-11-13,32,30,28,31,29,27,100,95,92,29.52,29.22,28.98,10,4,0,16,9,,0.71,8,Fog-Snow,295
2011-11-14,28,22,16,28,23,15,100,92,85,29.72,29.62,29.51,10,4,0,13,7,,0.09,7,Fog-Snow,300
2011-11-15,23,20,17,20,18,14,96,89,78,29.86,29.77,29.65,10,5,0,16,12,23,0.33,7,Fog-Snow,295
2011-11-16,19,17,15,18,14,8,93,87,73,29.64,29.49,29.42,2,1,0,31,18,52,0.46,8,Fog-Snow,295
2011-11-17,15,12,8,7,1,-5,71,62,53,30.26,30.00,29.64,10,8,2,28,20,38,0.00,3,Snow,304
2011-11-18,10,6,3,-2,-4,-8,62,58,52,30.25,30.12,30.06,10,8,1,20,15,26,0.00,3,Snow,315
2011-11-19,10,5,0,-2,-5,-8,76,58,51,30.19,30.12,29.96,10,10,10,18,13,26,0.00,0,,319
2011-11-20,7,0,-6,-5,-8,-11,79,65,52,29.93,29.59,29.16,10,10,10,18,12,26,0.00,6,,302
2011-11-21,12,9,6,9,5,-6,92,83,53,29.13,29.05,28.99,10,2,0,18,14,29,0.15,8,Fog-Snow,301
2011-11-22,27,20,12,25,15,8,100,87,79,29.05,28.97,28.87,10,5,1,22,13,,0.02,7,Snow,294
2011-11-23,30,24,19,25,21,18,100,91,75,29.04,29.00,28.94,10,3,0,16,5,,0.38,8,Fog-Snow,292
2011-11-24,21,16,10,18,14,4,93,83,71,29.49,29.14,29.02,10,6,0,18,14,25,0.00,5,Fog-Snow,300
2011-11-25,19,12,5,18,10,1,93,86,73,29.75,29.67,29.53,10,2,0,20,14,,0.25,8,Fog-Snow,292
2011-11-26,25,21,16,20,16,9,93,83,71,29.57,29.50,29.44,10,7,2,20,15,25,0.01,6,Snow,300
2011-11-27,17,13,9,14,9,4,92,81,73,29.81,29.73,29.56,10,6,0,17,14,,0.28,7,Fog-Snow,291
2011-11-28,37,26,16,36,27,13,100,92,86,29.83,29.58,29.44,10,6,0,17,10,30,0.82,8,Fog-Rain-Snow,92
2011-11-29,37,30,23,34,28,21,100,90,85,30.41,30.09,29.82,10,10,9,15,10,23,0.00,5,Rain,307
2011-11-30,37,29,21,36,33,20,100,91,86,30.42,30.24,29.86,10,6,1,25,15,46,1.49,8,Rain-Snow,95